sensor_id;sensor_type;location;lat;lon;timestamp;temperature;humidity
8676;DHT22;4375;52.486;13.424;2023-06-19T00:01:54;19.60;99.90
8676;DHT22;4375;52.486;13.424;2023-06-19T00:04:20;19.50;99.90
8676;DHT22;4375;52.486;13.424;2023-06-19T00:06:46;19.50;99.90
8676;DHT22;4375;52.486;13.424;2023-06-19T00:09:11;19.50;99.90
8676;DHT22;4375;52.486;13.424;2023-06-19T00:11:37;19.50;99.90
8676;DHT22;4375;52.486;13.424;2023-06-19T00:14:03;19.50;99.90
8676;DHT22;4375;52.486;13.424;2023-06-19T00:16:28;19.50;99.90
8676;DHT22;4375;52.486;13.424;2023-06-19T00:18:54;19.50;99.90
8676;DHT22;4375;52.486;13.424;2023-06-19T00:21:25;19.50;99.90
8676;DHT22;4375;52.486;13.424;2023-06-19T00:23:52;19.50;99.90
8676;DHT22;4375;52.486;13.424;2023-06-19T00:26:18;19.50;99.90
8676;DHT22;4375;52.486;13.424;2023-06-19T00:28:51;19.40;99.90
8676;DHT22;4375;52.486;13.424;2023-06-19T00:31:17;19.40;99.90
8676;DHT22;4375;52.486;13.424;2023-06-19T00:33:44;19.40;99.90
8676;DHT22;4375;52.486;13.424;2023-06-19T00:36:11;19.40;99.90
8676;DHT22;4375;52.486;13.424;2023-06-19T00:38:38;19.30;99.90
8676;DHT22;4375;52.486;13.424;2023-06-19T00:41:04;19.30;99.90
8676;DHT22;4375;52.486;13.424;2023-06-19T00:43:33;19.50;99.90
8676;DHT22;4375;52.486;13.424;2023-06-19T00:46:00;19.60;99.90
8676;DHT22;4375;52.486;13.424;2023-06-19T00:48:27;19.70;99.90
8676;DHT22;4375;52.486;13.424;2023-06-19T00:50:54;19.60;99.90
8676;DHT22;4375;52.486;13.424;2023-06-19T00:53:22;19.60;99.90
8676;DHT22;4375;52.486;13.424;2023-06-19T00:55:48;19.40;99.90
8676;DHT22;4375;52.486;13.424;2023-06-19T00:58:15;19.40;99.90
8676;DHT22;4375;52.486;13.424;2023-06-19T01:00:40;19.40;99.90
8676;DHT22;4375;52.486;13.424;2023-06-19T01:03:06;19.50;99.90
8676;DHT22;4375;52.486;13.424;2023-06-19T01:05:32;19.40;99.90
8676;DHT22;4375;52.486;13.424;2023-06-19T01:10:59;19.50;99.90
8676;DHT22;4375;52.486;13.424;2023-06-19T01:16:07;19.40;99.90
8676;DHT22;4375;52.486;13.424;2023-06-19T01:18:33;19.40;99.90
8676;DHT22;4375;52.486;13.424;2023-06-19T01:21:13;19.40;99.90
8676;DHT22;4375;52.486;13.424;2023-06-19T01:23:39;19.40;99.90
8676;DHT22;4375;52.486;13.424;2023-06-19T01:26:06;19.40;99.90
8676;DHT22;4375;52.486;13.424;2023-06-19T01:28:33;19.30;99.90
8676;DHT22;4375;52.486;13.424;2023-06-19T01:31:00;19.30;99.90
8676;DHT22;4375;52.486;13.424;2023-06-19T01:33:28;19.20;99.90
8676;DHT22;4375;52.486;13.424;2023-06-19T01:35:55;19.20;99.90
8676;DHT22;4375;52.486;13.424;2023-06-19T01:38:23;19.10;99.90
8676;DHT22;4375;52.486;13.424;2023-06-19T01:40:52;19.10;99.90
8676;DHT22;4375;52.486;13.424;2023-06-19T01:43:19;19.10;99.90
8676;DHT22;4375;52.486;13.424;2023-06-19T01:45:45;19.10;99.90
8676;DHT22;4375;52.486;13.424;2023-06-19T01:48:11;19.10;99.90
8676;DHT22;4375;52.486;13.424;2023-06-19T01:50:37;19.10;99.90
8676;DHT22;4375;52.486;13.424;2023-06-19T01:53:02;19.10;99.90
8676;DHT22;4375;52.486;13.424;2023-06-19T01:55:28;19.10;99.90
8676;DHT22;4375;52.486;13.424;2023-06-19T01:57:53;19.10;99.90
8676;DHT22;4375;52.486;13.424;2023-06-19T02:00:19;19.10;99.90
8676;DHT22;4375;52.486;13.424;2023-06-19T02:02:45;19.10;99.90
8676;DHT22;4375;52.486;13.424;2023-06-19T02:05:11;19.20;99.90
8676;DHT22;4375;52.486;13.424;2023-06-19T02:07:36;19.20;99.90
8676;DHT22;4375;52.486;13.424;2023-06-19T02:10:02;19.10;99.90
8676;DHT22;4375;52.486;13.424;2023-06-19T02:12:28;19.20;99.90
8676;DHT22;4375;52.486;13.424;2023-06-19T02:14:53;19.10;99.90
8676;DHT22;4375;52.486;13.424;2023-06-19T02:17:19;19.20;99.90
8676;DHT22;4375;52.486;13.424;2023-06-19T02:19:45;19.30;99.90
8676;DHT22;4375;52.486;13.424;2023-06-19T02:22:10;19.30;99.90
8676;DHT22;4375;52.486;13.424;2023-06-19T02:24:36;19.30;99.90
8676;DHT22;4375;52.486;13.424;2023-06-19T02:27:05;19.30;99.90
8676;DHT22;4375;52.486;13.424;2023-06-19T02:29:31;19.30;99.90
8676;DHT22;4375;52.486;13.424;2023-06-19T02:31:59;19.20;99.90
8676;DHT22;4375;52.486;13.424;2023-06-19T02:34:25;19.10;99.90
8676;DHT22;4375;52.486;13.424;2023-06-19T02:36:51;19.10;99.90
8676;DHT22;4375;52.486;13.424;2023-06-19T02:39:17;19.10;99.90
8676;DHT22;4375;52.486;13.424;2023-06-19T02:41:43;19.10;99.90
8676;DHT22;4375;52.486;13.424;2023-06-19T02:44:11;19.10;99.90
8676;DHT22;4375;52.486;13.424;2023-06-19T02:46:37;19.10;99.90
8676;DHT22;4375;52.486;13.424;2023-06-19T02:49:03;19.10;99.90
8676;DHT22;4375;52.486;13.424;2023-06-19T02:51:29;19.10;99.90
8676;DHT22;4375;52.486;13.424;2023-06-19T02:53:54;19.10;99.90
8676;DHT22;4375;52.486;13.424;2023-06-19T02:56:20;19.00;99.90
8676;DHT22;4375;52.486;13.424;2023-06-19T02:58:45;19.10;99.90
8676;DHT22;4375;52.486;13.424;2023-06-19T03:01:11;19.20;99.90
8676;DHT22;4375;52.486;13.424;2023-06-19T03:03:37;19.00;99.90
8676;DHT22;4375;52.486;13.424;2023-06-19T03:06:06;19.00;99.90
8676;DHT22;4375;52.486;13.424;2023-06-19T03:08:36;19.10;99.90
8676;DHT22;4375;52.486;13.424;2023-06-19T03:11:02;18.90;99.90
8676;DHT22;4375;52.486;13.424;2023-06-19T03:13:50;18.80;99.90
8676;DHT22;4375;52.486;13.424;2023-06-19T03:16:16;18.80;99.90
8676;DHT22;4375;52.486;13.424;2023-06-19T03:18:43;18.80;99.90
8676;DHT22;4375;52.486;13.424;2023-06-19T03:21:15;18.70;99.90
8676;DHT22;4375;52.486;13.424;2023-06-19T03:23:41;18.70;99.90
8676;DHT22;4375;52.486;13.424;2023-06-19T03:26:15;18.80;99.90
8676;DHT22;4375;52.486;13.424;2023-06-19T03:31:38;18.70;99.90
8676;DHT22;4375;52.486;13.424;2023-06-19T03:34:27;18.80;99.90
8676;DHT22;4375;52.486;13.424;2023-06-19T03:37:45;18.90;99.90
8676;DHT22;4375;52.486;13.424;2023-06-19T03:40:21;19.00;99.90
8676;DHT22;4375;52.486;13.424;2023-06-19T03:42:52;19.10;99.90
8676;DHT22;4375;52.486;13.424;2023-06-19T03:45:18;19.20;99.90
8676;DHT22;4375;52.486;13.424;2023-06-19T03:48:00;19.20;99.90
8676;DHT22;4375;52.486;13.424;2023-06-19T03:50:28;19.30;99.90
8676;DHT22;4375;52.486;13.424;2023-06-19T03:53:08;19.30;99.90
8676;DHT22;4375;52.486;13.424;2023-06-19T03:55:41;19.30;99.90
8676;DHT22;4375;52.486;13.424;2023-06-19T03:58:16;19.20;99.90
8676;DHT22;4375;52.486;13.424;2023-06-19T04:00:41;19.30;99.90
8676;DHT22;4375;52.486;13.424;2023-06-19T04:03:07;19.40;99.90
8676;DHT22;4375;52.486;13.424;2023-06-19T04:05:34;19.40;99.90
8676;DHT22;4375;52.486;13.424;2023-06-19T04:08:00;19.50;99.90
8676;DHT22;4375;52.486;13.424;2023-06-19T04:10:26;19.50;99.90
8676;DHT22;4375;52.486;13.424;2023-06-19T04:12:51;19.50;99.90
8676;DHT22;4375;52.486;13.424;2023-06-19T04:15:17;19.50;99.90
8676;DHT22;4375;52.486;13.424;2023-06-19T04:17:42;19.50;99.90
8676;DHT22;4375;52.486;13.424;2023-06-19T04:20:09;19.50;99.90
8676;DHT22;4375;52.486;13.424;2023-06-19T04:22:37;19.50;99.90
8676;DHT22;4375;52.486;13.424;2023-06-19T04:25:05;19.40;99.90
8676;DHT22;4375;52.486;13.424;2023-06-19T04:27:31;19.50;99.90
8676;DHT22;4375;52.486;13.424;2023-06-19T04:29:56;19.50;99.90
8676;DHT22;4375;52.486;13.424;2023-06-19T04:32:22;19.50;99.90
8676;DHT22;4375;52.486;13.424;2023-06-19T04:34:48;19.60;99.90
8676;DHT22;4375;52.486;13.424;2023-06-19T04:37:14;19.60;99.90
8676;DHT22;4375;52.486;13.424;2023-06-19T04:39:45;19.60;99.90
8676;DHT22;4375;52.486;13.424;2023-06-19T04:42:12;19.70;99.90
8676;DHT22;4375;52.486;13.424;2023-06-19T04:44:38;19.60;99.90
8676;DHT22;4375;52.486;13.424;2023-06-19T04:47:04;19.60;99.90
8676;DHT22;4375;52.486;13.424;2023-06-19T04:49:30;19.70;99.90
8676;DHT22;4375;52.486;13.424;2023-06-19T04:51:56;19.60;99.90
8676;DHT22;4375;52.486;13.424;2023-06-19T04:54:22;19.60;99.90
8676;DHT22;4375;52.486;13.424;2023-06-19T04:56:48;19.60;99.90
8676;DHT22;4375;52.486;13.424;2023-06-19T04:59:14;19.60;99.90
8676;DHT22;4375;52.486;13.424;2023-06-19T05:01:43;19.70;99.90
8676;DHT22;4375;52.486;13.424;2023-06-19T05:04:09;19.80;99.90
8676;DHT22;4375;52.486;13.424;2023-06-19T05:06:36;19.70;99.90
8676;DHT22;4375;52.486;13.424;2023-06-19T05:09:02;19.80;99.90
8676;DHT22;4375;52.486;13.424;2023-06-19T05:11:28;19.70;99.90
8676;DHT22;4375;52.486;13.424;2023-06-19T05:13:54;19.80;99.90
8676;DHT22;4375;52.486;13.424;2023-06-19T05:16:19;19.70;99.90
8676;DHT22;4375;52.486;13.424;2023-06-19T05:18:45;19.50;99.90
8676;DHT22;4375;52.486;13.424;2023-06-19T05:21:11;19.50;99.90
8676;DHT22;4375;52.486;13.424;2023-06-19T05:23:37;19.50;99.90
8676;DHT22;4375;52.486;13.424;2023-06-19T05:26:06;19.60;99.90
8676;DHT22;4375;52.486;13.424;2023-06-19T05:28:32;19.70;99.90
8676;DHT22;4375;52.486;13.424;2023-06-19T05:30:57;19.80;99.90
8676;DHT22;4375;52.486;13.424;2023-06-19T05:33:23;19.80;99.90
8676;DHT22;4375;52.486;13.424;2023-06-19T05:35:49;19.80;99.90
8676;DHT22;4375;52.486;13.424;2023-06-19T05:38:19;19.80;99.90
8676;DHT22;4375;52.486;13.424;2023-06-19T05:40:46;19.80;99.90
8676;DHT22;4375;52.486;13.424;2023-06-19T05:43:11;19.80;99.90
8676;DHT22;4375;52.486;13.424;2023-06-19T05:45:37;19.80;99.90
8676;DHT22;4375;52.486;13.424;2023-06-19T05:48:03;19.90;99.90
8676;DHT22;4375;52.486;13.424;2023-06-19T05:50:29;19.90;99.90
8676;DHT22;4375;52.486;13.424;2023-06-19T05:52:56;20.10;99.90
8676;DHT22;4375;52.486;13.424;2023-06-19T05:55:21;20.10;99.90
8676;DHT22;4375;52.486;13.424;2023-06-19T05:57:47;20.20;99.90
8676;DHT22;4375;52.486;13.424;2023-06-19T06:00:13;20.30;99.90
8676;DHT22;4375;52.486;13.424;2023-06-19T06:02:40;20.50;99.90
8676;DHT22;4375;52.486;13.424;2023-06-19T06:05:07;20.50;99.90
8676;DHT22;4375;52.486;13.424;2023-06-19T06:07:34;20.60;99.90
8676;DHT22;4375;52.486;13.424;2023-06-19T06:10:00;20.60;99.90
8676;DHT22;4375;52.486;13.424;2023-06-19T06:12:25;20.50;99.90
8676;DHT22;4375;52.486;13.424;2023-06-19T06:14:51;20.50;99.90
8676;DHT22;4375;52.486;13.424;2023-06-19T06:17:16;20.40;99.90
8676;DHT22;4375;52.486;13.424;2023-06-19T06:19:42;20.50;99.90
8676;DHT22;4375;52.486;13.424;2023-06-19T06:22:08;20.50;99.90
8676;DHT22;4375;52.486;13.424;2023-06-19T06:24:33;20.50;99.90
8676;DHT22;4375;52.486;13.424;2023-06-19T06:26:59;20.50;99.90
8676;DHT22;4375;52.486;13.424;2023-06-19T06:29:25;20.50;99.90
8676;DHT22;4375;52.486;13.424;2023-06-19T06:31:50;20.50;99.90
8676;DHT22;4375;52.486;13.424;2023-06-19T06:34:18;20.60;99.90
8676;DHT22;4375;52.486;13.424;2023-06-19T06:36:45;20.60;99.90
8676;DHT22;4375;52.486;13.424;2023-06-19T06:39:10;20.70;99.90
8676;DHT22;4375;52.486;13.424;2023-06-19T06:41:36;20.70;99.90
8676;DHT22;4375;52.486;13.424;2023-06-19T06:44:02;20.60;99.90
8676;DHT22;4375;52.486;13.424;2023-06-19T06:46:28;20.60;99.90
8676;DHT22;4375;52.486;13.424;2023-06-19T06:48:56;20.70;99.90
8676;DHT22;4375;52.486;13.424;2023-06-19T06:51:22;20.60;99.90
8676;DHT22;4375;52.486;13.424;2023-06-19T06:53:48;20.80;99.90
8676;DHT22;4375;52.486;13.424;2023-06-19T06:56:13;20.80;99.90
8676;DHT22;4375;52.486;13.424;2023-06-19T06:58:39;20.80;99.90
8676;DHT22;4375;52.486;13.424;2023-06-19T07:01:05;20.90;99.90
8676;DHT22;4375;52.486;13.424;2023-06-19T07:03:30;21.20;99.90
8676;DHT22;4375;52.486;13.424;2023-06-19T07:05:57;21.30;99.90
8676;DHT22;4375;52.486;13.424;2023-06-19T07:08:23;21.30;99.90
8676;DHT22;4375;52.486;13.424;2023-06-19T07:10:48;21.30;99.90
8676;DHT22;4375;52.486;13.424;2023-06-19T07:13:14;21.40;99.90
8676;DHT22;4375;52.486;13.424;2023-06-19T07:15:40;21.30;99.90
8676;DHT22;4375;52.486;13.424;2023-06-19T07:18:05;21.30;99.90
8676;DHT22;4375;52.486;13.424;2023-06-19T07:20:31;21.40;99.90
8676;DHT22;4375;52.486;13.424;2023-06-19T07:22:57;21.70;99.90
8676;DHT22;4375;52.486;13.424;2023-06-19T07:25:23;21.80;99.90
8676;DHT22;4375;52.486;13.424;2023-06-19T07:27:50;21.90;99.90
8676;DHT22;4375;52.486;13.424;2023-06-19T07:30:16;21.80;99.90
8676;DHT22;4375;52.486;13.424;2023-06-19T07:32:42;21.70;99.90
8676;DHT22;4375;52.486;13.424;2023-06-19T07:35:08;21.80;99.90
8676;DHT22;4375;52.486;13.424;2023-06-19T07:37:33;22.00;99.90
8676;DHT22;4375;52.486;13.424;2023-06-19T07:39:59;22.10;99.90
8676;DHT22;4375;52.486;13.424;2023-06-19T07:42:26;22.30;99.90
8676;DHT22;4375;52.486;13.424;2023-06-19T07:44:51;22.40;99.90
8676;DHT22;4375;52.486;13.424;2023-06-19T07:47:17;22.20;99.90
8676;DHT22;4375;52.486;13.424;2023-06-19T07:49:44;22.40;99.90
8676;DHT22;4375;52.486;13.424;2023-06-19T07:52:10;22.60;99.90
8676;DHT22;4375;52.486;13.424;2023-06-19T07:54:36;22.90;99.90
8676;DHT22;4375;52.486;13.424;2023-06-19T07:57:02;23.00;99.90
8676;DHT22;4375;52.486;13.424;2023-06-19T07:59:28;23.00;99.90
8676;DHT22;4375;52.486;13.424;2023-06-19T08:01:53;23.00;99.90
8676;DHT22;4375;52.486;13.424;2023-06-19T08:04:19;23.20;99.90
8676;DHT22;4375;52.486;13.424;2023-06-19T08:06:44;23.40;99.90
8676;DHT22;4375;52.486;13.424;2023-06-19T08:09:10;23.40;99.90
8676;DHT22;4375;52.486;13.424;2023-06-19T08:11:36;23.50;99.90
8676;DHT22;4375;52.486;13.424;2023-06-19T08:14:02;23.80;99.90
8676;DHT22;4375;52.486;13.424;2023-06-19T08:16:28;23.60;99.90
8676;DHT22;4375;52.486;13.424;2023-06-19T08:18:54;23.40;99.90
8676;DHT22;4375;52.486;13.424;2023-06-19T08:21:19;23.20;99.90
8676;DHT22;4375;52.486;13.424;2023-06-19T08:23:47;23.40;99.90
8676;DHT22;4375;52.486;13.424;2023-06-19T08:26:13;23.80;99.90
8676;DHT22;4375;52.486;13.424;2023-06-19T08:28:39;23.80;99.90
8676;DHT22;4375;52.486;13.424;2023-06-19T08:31:06;24.00;99.90
8676;DHT22;4375;52.486;13.424;2023-06-19T08:33:34;24.00;99.90
8676;DHT22;4375;52.486;13.424;2023-06-19T08:36:00;23.80;99.90
8676;DHT22;4375;52.486;13.424;2023-06-19T08:38:26;23.60;99.90
8676;DHT22;4375;52.486;13.424;2023-06-19T08:40:51;23.60;99.90
8676;DHT22;4375;52.486;13.424;2023-06-19T08:43:17;23.60;99.90
8676;DHT22;4375;52.486;13.424;2023-06-19T08:45:43;23.60;99.90
8676;DHT22;4375;52.486;13.424;2023-06-19T08:48:13;23.70;99.90
8676;DHT22;4375;52.486;13.424;2023-06-19T08:50:39;23.80;99.90
8676;DHT22;4375;52.486;13.424;2023-06-19T08:53:07;23.90;99.90
8676;DHT22;4375;52.486;13.424;2023-06-19T08:55:32;24.00;99.90
8676;DHT22;4375;52.486;13.424;2023-06-19T08:58:00;24.00;99.90
8676;DHT22;4375;52.486;13.424;2023-06-19T09:00:27;24.00;99.90
8676;DHT22;4375;52.486;13.424;2023-06-19T09:03:01;24.00;99.90
8676;DHT22;4375;52.486;13.424;2023-06-19T09:05:28;24.10;99.90
8676;DHT22;4375;52.486;13.424;2023-06-19T09:08:00;24.30;99.90
8676;DHT22;4375;52.486;13.424;2023-06-19T09:10:58;24.50;99.90
8676;DHT22;4375;52.486;13.424;2023-06-19T09:13:33;24.80;99.90
8676;DHT22;4375;52.486;13.424;2023-06-19T09:16:03;24.70;99.90
8676;DHT22;4375;52.486;13.424;2023-06-19T09:18:42;24.60;99.90
8676;DHT22;4375;52.486;13.424;2023-06-19T09:21:15;24.60;99.90
8676;DHT22;4375;52.486;13.424;2023-06-19T09:23:41;24.80;99.90
8676;DHT22;4375;52.486;13.424;2023-06-19T09:26:07;24.90;99.90
8676;DHT22;4375;52.486;13.424;2023-06-19T09:28:33;24.50;99.90
8676;DHT22;4375;52.486;13.424;2023-06-19T09:31:02;24.30;99.90
8676;DHT22;4375;52.486;13.424;2023-06-19T09:33:32;24.50;99.90
8676;DHT22;4375;52.486;13.424;2023-06-19T09:35:59;24.30;99.90
8676;DHT22;4375;52.486;13.424;2023-06-19T09:38:33;24.50;99.90
8676;DHT22;4375;52.486;13.424;2023-06-19T09:41:03;24.60;99.90
8676;DHT22;4375;52.486;13.424;2023-06-19T09:43:47;24.80;99.90
8676;DHT22;4375;52.486;13.424;2023-06-19T09:46:14;24.70;99.90
8676;DHT22;4375;52.486;13.424;2023-06-19T09:48:45;24.60;99.90
8676;DHT22;4375;52.486;13.424;2023-06-19T09:51:20;24.70;99.90
8676;DHT22;4375;52.486;13.424;2023-06-19T09:53:47;24.80;99.90
8676;DHT22;4375;52.486;13.424;2023-06-19T09:56:14;24.70;99.90
8676;DHT22;4375;52.486;13.424;2023-06-19T09:58:41;24.90;99.90
8676;DHT22;4375;52.486;13.424;2023-06-19T10:01:08;24.90;99.90
8676;DHT22;4375;52.486;13.424;2023-06-19T10:03:34;24.90;99.90
8676;DHT22;4375;52.486;13.424;2023-06-19T10:06:02;24.90;99.90
8676;DHT22;4375;52.486;13.424;2023-06-19T10:08:39;24.70;99.90
8676;DHT22;4375;52.486;13.424;2023-06-19T10:11:05;24.40;99.90
8676;DHT22;4375;52.486;13.424;2023-06-19T10:13:33;24.50;99.90
8676;DHT22;4375;52.486;13.424;2023-06-19T10:15:59;24.40;99.90
8676;DHT22;4375;52.486;13.424;2023-06-19T10:18:25;24.70;99.90
8676;DHT22;4375;52.486;13.424;2023-06-19T10:20:53;24.90;99.90
8676;DHT22;4375;52.486;13.424;2023-06-19T10:23:25;25.00;99.90
8676;DHT22;4375;52.486;13.424;2023-06-19T10:30:58;25.30;99.90
8676;DHT22;4375;52.486;13.424;2023-06-19T10:33:26;25.40;99.90
8676;DHT22;4375;52.486;13.424;2023-06-19T10:35:53;25.40;99.90
8676;DHT22;4375;52.486;13.424;2023-06-19T10:38:19;25.40;99.90
8676;DHT22;4375;52.486;13.424;2023-06-19T10:40:45;25.50;99.90
8676;DHT22;4375;52.486;13.424;2023-06-19T10:43:12;25.30;99.90
8676;DHT22;4375;52.486;13.424;2023-06-19T10:45:38;25.20;99.90
8676;DHT22;4375;52.486;13.424;2023-06-19T10:48:04;25.30;99.90
8676;DHT22;4375;52.486;13.424;2023-06-19T10:50:34;24.80;99.90
8676;DHT22;4375;52.486;13.424;2023-06-19T10:53:01;25.00;99.90
8676;DHT22;4375;52.486;13.424;2023-06-19T10:55:26;24.90;99.90
8676;DHT22;4375;52.486;13.424;2023-06-19T10:57:52;25.10;99.90
8676;DHT22;4375;52.486;13.424;2023-06-19T11:00:30;25.20;99.90
8676;DHT22;4375;52.486;13.424;2023-06-19T11:02:57;25.60;99.90
8676;DHT22;4375;52.486;13.424;2023-06-19T11:05:24;25.70;99.90
8676;DHT22;4375;52.486;13.424;2023-06-19T11:07:59;25.80;99.90
8676;DHT22;4375;52.486;13.424;2023-06-19T11:10:27;26.10;99.90
8676;DHT22;4375;52.486;13.424;2023-06-19T11:12:57;26.30;99.90
8676;DHT22;4375;52.486;13.424;2023-06-19T11:15:33;26.40;99.90
8676;DHT22;4375;52.486;13.424;2023-06-19T11:18:01;26.40;99.90
8676;DHT22;4375;52.486;13.424;2023-06-19T11:20:28;26.40;99.90
8676;DHT22;4375;52.486;13.424;2023-06-19T11:23:00;26.20;99.90
8676;DHT22;4375;52.486;13.424;2023-06-19T11:25:39;26.20;99.90
8676;DHT22;4375;52.486;13.424;2023-06-19T11:28:14;26.00;99.90
8676;DHT22;4375;52.486;13.424;2023-06-19T11:30:41;26.10;99.90
8676;DHT22;4375;52.486;13.424;2023-06-19T11:33:19;26.10;99.90
8676;DHT22;4375;52.486;13.424;2023-06-19T11:36:00;26.40;99.90
8676;DHT22;4375;52.486;13.424;2023-06-19T11:38:26;26.10;99.90
8676;DHT22;4375;52.486;13.424;2023-06-19T11:40:53;25.90;99.90
8676;DHT22;4375;52.486;13.424;2023-06-19T11:43:28;25.90;99.90
8676;DHT22;4375;52.486;13.424;2023-06-19T11:46:03;26.10;99.90
8676;DHT22;4375;52.486;13.424;2023-06-19T11:48:29;26.20;99.90
8676;DHT22;4375;52.486;13.424;2023-06-19T11:50:55;26.30;99.90
8676;DHT22;4375;52.486;13.424;2023-06-19T11:53:22;26.30;99.90
8676;DHT22;4375;52.486;13.424;2023-06-19T11:55:49;26.40;99.90
8676;DHT22;4375;52.486;13.424;2023-06-19T11:58:18;26.70;99.90
8676;DHT22;4375;52.486;13.424;2023-06-19T12:00:46;26.90;99.90
8676;DHT22;4375;52.486;13.424;2023-06-19T12:03:12;26.80;99.90
8676;DHT22;4375;52.486;13.424;2023-06-19T12:05:38;26.70;99.90
8676;DHT22;4375;52.486;13.424;2023-06-19T12:08:03;26.60;99.90
8676;DHT22;4375;52.486;13.424;2023-06-19T12:10:41;26.60;99.90
8676;DHT22;4375;52.486;13.424;2023-06-19T12:13:07;26.70;99.90
8676;DHT22;4375;52.486;13.424;2023-06-19T12:15:33;26.90;99.90
8676;DHT22;4375;52.486;13.424;2023-06-19T12:17:58;26.90;99.90
8676;DHT22;4375;52.486;13.424;2023-06-19T12:20:24;27.00;99.90
8676;DHT22;4375;52.486;13.424;2023-06-19T12:22:50;26.90;99.90
8676;DHT22;4375;52.486;13.424;2023-06-19T12:25:16;27.10;99.90
8676;DHT22;4375;52.486;13.424;2023-06-19T12:27:41;26.90;99.90
8676;DHT22;4375;52.486;13.424;2023-06-19T12:30:08;27.00;99.90
8676;DHT22;4375;52.486;13.424;2023-06-19T12:32:34;27.00;99.90
8676;DHT22;4375;52.486;13.424;2023-06-19T12:34:59;26.90;99.90
8676;DHT22;4375;52.486;13.424;2023-06-19T12:37:25;26.90;99.90
8676;DHT22;4375;52.486;13.424;2023-06-19T12:39:51;26.90;99.90
8676;DHT22;4375;52.486;13.424;2023-06-19T12:42:16;26.70;99.90
8676;DHT22;4375;52.486;13.424;2023-06-19T12:44:43;26.50;99.90
8676;DHT22;4375;52.486;13.424;2023-06-19T12:47:13;26.50;99.90
8676;DHT22;4375;52.486;13.424;2023-06-19T12:49:43;26.40;99.90
8676;DHT22;4375;52.486;13.424;2023-06-19T12:52:09;26.40;99.90
8676;DHT22;4375;52.486;13.424;2023-06-19T12:54:34;26.40;99.90
8676;DHT22;4375;52.486;13.424;2023-06-19T12:57:00;26.40;99.90
8676;DHT22;4375;52.486;13.424;2023-06-19T12:59:26;26.50;99.90
8676;DHT22;4375;52.486;13.424;2023-06-19T13:01:51;26.40;99.90
8676;DHT22;4375;52.486;13.424;2023-06-19T13:04:17;26.40;99.90
8676;DHT22;4375;52.486;13.424;2023-06-19T13:06:43;26.50;99.90
8676;DHT22;4375;52.486;13.424;2023-06-19T13:09:09;26.40;99.90
8676;DHT22;4375;52.486;13.424;2023-06-19T13:11:34;26.40;99.90
8676;DHT22;4375;52.486;13.424;2023-06-19T13:14:01;26.40;99.90
8676;DHT22;4375;52.486;13.424;2023-06-19T13:16:26;26.70;99.90
8676;DHT22;4375;52.486;13.424;2023-06-19T13:18:52;26.80;99.90
8676;DHT22;4375;52.486;13.424;2023-06-19T13:21:18;26.90;99.90
8676;DHT22;4375;52.486;13.424;2023-06-19T13:23:44;27.10;99.90
8676;DHT22;4375;52.486;13.424;2023-06-19T13:26:10;27.20;99.90
8676;DHT22;4375;52.486;13.424;2023-06-19T13:28:36;27.20;99.90
8676;DHT22;4375;52.486;13.424;2023-06-19T13:31:02;27.10;99.90
8676;DHT22;4375;52.486;13.424;2023-06-19T13:33:28;27.00;99.90
8676;DHT22;4375;52.486;13.424;2023-06-19T13:35:53;26.80;99.90
8676;DHT22;4375;52.486;13.424;2023-06-19T13:38:19;26.70;99.90
8676;DHT22;4375;52.486;13.424;2023-06-19T13:40:44;26.70;99.90
8676;DHT22;4375;52.486;13.424;2023-06-19T13:43:10;26.80;99.90
8676;DHT22;4375;52.486;13.424;2023-06-19T13:45:36;26.90;99.90
8676;DHT22;4375;52.486;13.424;2023-06-19T13:48:04;27.00;99.90
8676;DHT22;4375;52.486;13.424;2023-06-19T13:50:30;27.00;99.90
8676;DHT22;4375;52.486;13.424;2023-06-19T13:52:55;27.00;99.90
8676;DHT22;4375;52.486;13.424;2023-06-19T13:55:21;27.00;99.90
8676;DHT22;4375;52.486;13.424;2023-06-19T13:57:48;27.00;99.90
8676;DHT22;4375;52.486;13.424;2023-06-19T14:00:14;27.00;99.90
8676;DHT22;4375;52.486;13.424;2023-06-19T14:02:40;27.10;99.90
8676;DHT22;4375;52.486;13.424;2023-06-19T14:05:07;27.10;99.90
8676;DHT22;4375;52.486;13.424;2023-06-19T14:07:33;27.10;99.90
8676;DHT22;4375;52.486;13.424;2023-06-19T14:10:00;27.00;99.90
8676;DHT22;4375;52.486;13.424;2023-06-19T14:12:26;26.90;99.90
8676;DHT22;4375;52.486;13.424;2023-06-19T14:14:52;27.00;99.90
8676;DHT22;4375;52.486;13.424;2023-06-19T14:17:18;27.10;99.90
8676;DHT22;4375;52.486;13.424;2023-06-19T14:19:43;27.20;99.90
8676;DHT22;4375;52.486;13.424;2023-06-19T14:22:09;27.30;99.90
8676;DHT22;4375;52.486;13.424;2023-06-19T14:24:34;27.30;99.90
8676;DHT22;4375;52.486;13.424;2023-06-19T14:27:00;27.40;99.90
8676;DHT22;4375;52.486;13.424;2023-06-19T14:29:26;27.50;99.90
8676;DHT22;4375;52.486;13.424;2023-06-19T14:31:52;27.50;99.90
8676;DHT22;4375;52.486;13.424;2023-06-19T14:34:21;27.60;99.90
8676;DHT22;4375;52.486;13.424;2023-06-19T14:36:47;27.50;99.90
8676;DHT22;4375;52.486;13.424;2023-06-19T14:39:13;27.40;99.90
8676;DHT22;4375;52.486;13.424;2023-06-19T14:41:39;27.40;99.90
8676;DHT22;4375;52.486;13.424;2023-06-19T14:44:05;27.50;99.90
8676;DHT22;4375;52.486;13.424;2023-06-19T14:46:34;27.60;99.90
8676;DHT22;4375;52.486;13.424;2023-06-19T14:49:09;27.70;99.90
8676;DHT22;4375;52.486;13.424;2023-06-19T14:51:35;27.80;99.90
8676;DHT22;4375;52.486;13.424;2023-06-19T14:54:01;27.80;99.90
8676;DHT22;4375;52.486;13.424;2023-06-19T14:56:27;27.80;99.90
8676;DHT22;4375;52.486;13.424;2023-06-19T14:58:53;27.80;99.90
8676;DHT22;4375;52.486;13.424;2023-06-19T15:01:19;27.90;99.90
8676;DHT22;4375;52.486;13.424;2023-06-19T15:03:44;27.80;99.90
8676;DHT22;4375;52.486;13.424;2023-06-19T15:06:10;27.90;99.90
8676;DHT22;4375;52.486;13.424;2023-06-19T15:08:35;27.60;99.90
8676;DHT22;4375;52.486;13.424;2023-06-19T15:11:03;27.60;99.90
8676;DHT22;4375;52.486;13.424;2023-06-19T15:13:30;27.50;99.90
8676;DHT22;4375;52.486;13.424;2023-06-19T15:15:56;27.50;99.90
8676;DHT22;4375;52.486;13.424;2023-06-19T15:18:24;27.40;99.90
8676;DHT22;4375;52.486;13.424;2023-06-19T15:20:50;27.40;99.90
8676;DHT22;4375;52.486;13.424;2023-06-19T15:23:16;27.40;99.90
8676;DHT22;4375;52.486;13.424;2023-06-19T15:25:42;27.40;99.90
8676;DHT22;4375;52.486;13.424;2023-06-19T15:28:08;27.30;99.90
8676;DHT22;4375;52.486;13.424;2023-06-19T15:30:33;27.30;99.90
8676;DHT22;4375;52.486;13.424;2023-06-19T15:32:59;27.20;99.90
8676;DHT22;4375;52.486;13.424;2023-06-19T15:35:25;27.20;99.90
8676;DHT22;4375;52.486;13.424;2023-06-19T15:37:51;27.20;99.90
8676;DHT22;4375;52.486;13.424;2023-06-19T15:40:17;27.10;99.90
8676;DHT22;4375;52.486;13.424;2023-06-19T15:42:42;27.20;99.90
8676;DHT22;4375;52.486;13.424;2023-06-19T15:45:09;27.30;99.90
8676;DHT22;4375;52.486;13.424;2023-06-19T15:47:36;27.30;99.90
8676;DHT22;4375;52.486;13.424;2023-06-19T15:50:02;27.20;99.90
8676;DHT22;4375;52.486;13.424;2023-06-19T15:52:29;27.20;99.90
8676;DHT22;4375;52.486;13.424;2023-06-19T15:54:55;27.30;99.90
8676;DHT22;4375;52.486;13.424;2023-06-19T15:57:21;27.30;99.90
8676;DHT22;4375;52.486;13.424;2023-06-19T15:59:46;27.40;99.90